Terminal Aerodrome Forecast
Issued by NWS

Home | Current Version | Previous Version | Text Only | Print | Product List | Glossary Off
Versions: 1 2 3 4 5 6 7 8 9 10 11 12 13 14 15 16 17 18 19

000
FTUS43 KTOP 280520
TAFMHK
TAF
KMHK 280520Z 2806/2906 19016G25KT P6SM SCT100 WS018/19055KT
     FM281000 20016G25KT P6SM VCTS BKN070CB WS020/20048KT
      TEMPO 2810/2813 4SM -TSRA SCT020 BKN040CB
     FM281300 20015G24KT P6SM SCT100
     FM290100 18012KT P6SM BKN070=

USA.gov is the U.S. government's official web portal to all federal, state and local government web resources and services.